createdAt,value
2023-02-09T00:00:05.717Z,1028.21
2023-02-09T00:01:05.599Z,1028.21
2023-02-09T00:02:05.740Z,1028.21
2023-02-09T00:03:05.594Z,1028.25
2023-02-09T00:04:05.614Z,1028.22
2023-02-09T00:05:05.555Z,1028.23
2023-02-09T00:06:05.627Z,1028.29
2023-02-09T00:07:05.534Z,1028.26
2023-02-09T00:08:05.590Z,1028.17
2023-02-09T00:09:05.511Z,1028.15
2023-02-09T00:10:05.549Z,1028.11
2023-02-09T00:11:05.504Z,1028.10
2023-02-09T00:12:05.561Z,1028.14
2023-02-09T00:13:05.491Z,1028.09
2023-02-09T00:14:05.579Z,1028.05
2023-02-09T00:15:05.448Z,1028.06
2023-02-09T00:16:05.567Z,1028.07
2023-02-09T00:17:05.429Z,1028.04
2023-02-09T00:18:05.453Z,1028.06
2023-02-09T00:19:05.443Z,1028.02
2023-02-09T00:20:05.532Z,1028.00
2023-02-09T00:21:05.392Z,1027.98
2023-02-09T00:22:05.435Z,1027.98
2023-02-09T00:23:05.390Z,1027.97
2023-02-09T00:24:05.449Z,1027.94
2023-02-09T00:25:05.352Z,1027.91
2023-02-09T00:26:05.459Z,1027.91
2023-02-09T00:27:05.339Z,1027.87
2023-02-09T00:28:05.480Z,1027.95
2023-02-09T00:29:05.301Z,1027.93
2023-02-09T00:30:05.376Z,1027.91
2023-02-09T00:31:05.318Z,1027.93
2023-02-09T00:32:05.420Z,1027.87
2023-02-09T00:33:05.298Z,1027.85
2023-02-09T00:34:05.338Z,1027.84
2023-02-09T00:35:05.242Z,1027.84
2023-02-09T00:36:06.361Z,1027.82
2023-02-09T00:37:05.225Z,1027.83
2023-02-09T00:38:05.372Z,1027.81
2023-02-09T00:39:05.200Z,1027.79
2023-02-09T00:40:05.246Z,1027.82
2023-02-09T00:41:05.183Z,1027.75
2023-02-09T00:42:05.406Z,1027.79
2023-02-09T00:43:05.164Z,1027.74
2023-02-09T00:44:05.224Z,1027.77
2023-02-09T00:45:05.136Z,1027.82
2023-02-09T00:46:05.322Z,1027.78
2023-02-09T00:47:05.116Z,1027.79
2023-02-09T00:48:05.792Z,1027.75
2023-02-09T00:49:05.118Z,1027.74
2023-02-09T00:50:05.218Z,1027.73
2023-02-09T00:51:05.077Z,1027.73
2023-02-09T00:52:05.132Z,1027.73
2023-02-09T00:53:05.053Z,1027.74
2023-02-09T00:54:05.096Z,1027.74
2023-02-09T00:55:05.042Z,1027.74
2023-02-09T00:56:05.068Z,1027.74
2023-02-09T00:57:05.078Z,1027.81
2023-02-09T00:58:05.067Z,1027.77
2023-02-09T00:59:05.012Z,1027.76
2023-02-09T01:00:05.180Z,1027.76
2023-02-09T01:01:05.092Z,1027.79
2023-02-09T01:02:05.007Z,1027.80
2023-02-09T01:03:05.005Z,1027.79
2023-02-09T01:04:05.084Z,1027.79
2023-02-09T01:05:05.018Z,1027.81
2023-02-09T01:06:05.011Z,1027.85
2023-02-09T01:07:04.913Z,1027.80
2023-02-09T01:08:04.927Z,1027.80
2023-02-09T01:09:04.909Z,1027.80
2023-02-09T01:10:04.934Z,1027.83
2023-02-09T01:11:04.874Z,1027.80
2023-02-09T01:12:04.950Z,1027.81
2023-02-09T01:13:04.849Z,1027.81
2023-02-09T01:14:04.923Z,1027.83
2023-02-09T01:15:04.827Z,1027.81
2023-02-09T01:16:04.872Z,1027.76
2023-02-09T01:17:04.996Z,1027.83
2023-02-09T01:18:04.905Z,1027.80
2023-02-09T01:19:04.804Z,1027.88
2023-02-09T01:20:04.818Z,1027.84
2023-02-09T01:21:04.761Z,1027.76
2023-02-09T01:22:05.833Z,1027.82
2023-02-09T01:23:04.737Z,1027.82
2023-02-09T01:24:07.848Z,1027.80
2023-02-09T01:25:04.717Z,1027.79
2023-02-09T01:26:04.736Z,1027.79
2023-02-09T01:27:04.699Z,1027.75
2023-02-09T01:28:04.792Z,1027.75
2023-02-09T01:29:04.704Z,1027.72
2023-02-09T01:30:04.771Z,1027.74
2023-02-09T01:31:04.808Z,1027.71
2023-02-09T01:32:04.772Z,1027.71
2023-02-09T01:33:04.634Z,1027.75
2023-02-09T01:34:04.747Z,1027.77
2023-02-09T01:35:04.617Z,1027.75
2023-02-09T01:36:04.729Z,1027.75
2023-02-09T01:37:04.612Z,1027.78
2023-02-09T01:38:04.618Z,1027.81
2023-02-09T01:39:04.590Z,1027.76
2023-02-09T01:40:04.640Z,1027.76
2023-02-09T01:41:04.572Z,1027.73
2023-02-09T01:42:04.657Z,1027.74
2023-02-09T01:43:04.536Z,1027.72
2023-02-09T01:44:04.609Z,1027.67
2023-02-09T01:45:04.514Z,1027.70
2023-02-09T01:46:04.632Z,1027.67
2023-02-09T01:47:04.497Z,1027.65
2023-02-09T01:48:04.611Z,1027.67
2023-02-09T01:49:04.495Z,1027.69
2023-02-09T01:50:04.495Z,1027.67
2023-02-09T01:51:04.455Z,1027.60
2023-02-09T01:52:04.523Z,1027.74
2023-02-09T01:53:04.433Z,1027.64
2023-02-09T01:54:04.476Z,1027.67
2023-02-09T01:55:04.417Z,1027.57
2023-02-09T01:56:04.439Z,1027.55
2023-02-09T01:57:04.400Z,1027.61
2023-02-09T01:58:04.451Z,1027.56
2023-02-09T01:59:04.390Z,1027.63
2023-02-09T02:00:04.470Z,1027.52
2023-02-09T02:01:04.393Z,1027.49
2023-02-09T02:02:04.374Z,1027.49
2023-02-09T02:03:04.330Z,1027.50
2023-02-09T02:04:04.391Z,1027.45
2023-02-09T02:05:04.326Z,1027.44
2023-02-09T02:06:04.398Z,1027.42
2023-02-09T02:07:04.286Z,1027.42
2023-02-09T02:08:04.340Z,1027.36
2023-02-09T02:09:04.271Z,1027.38
2023-02-09T02:10:04.402Z,1027.37
2023-02-09T02:11:04.249Z,1027.37
2023-02-09T02:12:04.340Z,1027.35
2023-02-09T02:13:04.230Z,1027.38
2023-02-09T02:14:25.313Z,1027.37
2023-02-09T02:15:04.207Z,1027.38
2023-02-09T02:16:04.459Z,1027.32
2023-02-09T02:17:04.188Z,1027.27
2023-02-09T02:18:04.276Z,1027.29
2023-02-09T02:19:04.162Z,1027.31
2023-02-09T02:20:04.239Z,1027.30
2023-02-09T02:21:04.142Z,1027.28
2023-02-09T02:22:04.199Z,1027.19
2023-02-09T02:23:04.123Z,1027.21
2023-02-09T02:24:04.232Z,1027.18
2023-02-09T02:25:04.117Z,1027.13
2023-02-09T02:26:06.115Z,1027.09
2023-02-09T02:27:04.092Z,1027.05
2023-02-09T02:28:04.149Z,1027.07
2023-02-09T02:29:04.060Z,1027.08
2023-02-09T02:30:04.099Z,1027.03
2023-02-09T02:31:04.205Z,1027.03
2023-02-09T02:32:04.064Z,1026.99
2023-02-09T02:33:04.022Z,1027.01
2023-02-09T02:34:04.073Z,1027.03
2023-02-09T02:35:04.012Z,1026.95
2023-02-09T02:36:04.089Z,1027.01
2023-02-09T02:37:04.002Z,1027.01
2023-02-09T02:38:04.003Z,1026.98
2023-02-09T02:39:03.954Z,1027.03
2023-02-09T02:40:04.086Z,1027.00
2023-02-09T02:41:03.936Z,1027.03
2023-02-09T02:42:04.036Z,1027.00
2023-02-09T02:43:03.914Z,1027.00
2023-02-09T02:44:03.945Z,1027.03
2023-02-09T02:45:03.926Z,1027.08
2023-02-09T02:46:03.989Z,1027.00
2023-02-09T02:47:03.873Z,1026.96
2023-02-09T02:48:03.972Z,1026.94
2023-02-09T02:49:03.859Z,1026.95
2023-02-09T02:50:03.934Z,1026.92
2023-02-09T02:51:03.903Z,1026.93
2023-02-09T02:52:03.903Z,1026.98
2023-02-09T02:53:03.814Z,1026.94
2023-02-09T02:54:03.927Z,1026.89
2023-02-09T02:55:03.812Z,1026.86
2023-02-09T02:56:03.847Z,1026.91
2023-02-09T02:57:03.785Z,1026.91
2023-02-09T02:58:03.839Z,1026.87
2023-02-09T02:59:03.758Z,1026.89
2023-02-09T03:00:03.803Z,1026.86
2023-02-09T03:01:03.745Z,1026.88
2023-02-09T03:02:26.819Z,1026.84
2023-02-09T03:03:03.713Z,1026.87
2023-02-09T03:04:24.827Z,1026.85
2023-02-09T03:05:03.773Z,1026.86
2023-02-09T03:06:04.735Z,1026.80
2023-02-09T03:07:03.681Z,1026.81
2023-02-09T03:08:03.738Z,1026.81
2023-02-09T03:09:03.652Z,1026.78
2023-02-09T03:10:04.699Z,1026.80
2023-02-09T03:11:03.641Z,1026.79
2023-02-09T03:12:04.676Z,1026.80
2023-02-09T03:13:03.627Z,1026.80
2023-02-09T03:14:03.645Z,1026.74
2023-02-09T03:15:03.613Z,1026.77
2023-02-09T03:16:03.703Z,1026.78
2023-02-09T03:17:03.579Z,1026.75
2023-02-09T03:18:03.674Z,1026.77
2023-02-09T03:19:03.555Z,1026.77
2023-02-09T03:20:03.639Z,1026.76
2023-02-09T03:21:03.529Z,1026.79
2023-02-09T03:22:03.595Z,1026.71
2023-02-09T03:23:03.509Z,1026.75
2023-02-09T03:24:03.625Z,1026.77
2023-02-09T03:25:03.508Z,1026.70
2023-02-09T03:26:03.536Z,1026.66
2023-02-09T03:27:03.466Z,1026.65
2023-02-09T03:28:03.606Z,1026.69
2023-02-09T03:29:03.446Z,1026.68
2023-02-09T03:30:03.500Z,1026.73
2023-02-09T03:31:03.566Z,1026.75
2023-02-09T03:32:03.462Z,1026.72
2023-02-09T03:33:03.403Z,1026.74
2023-02-09T03:34:03.481Z,1026.70
2023-02-09T03:35:04.214Z,1026.69
2023-02-09T03:36:03.387Z,1026.73
2023-02-09T03:37:03.362Z,1026.72
2023-02-09T03:38:03.428Z,1026.72
2023-02-09T03:39:03.343Z,1026.68
2023-02-09T03:40:03.378Z,1026.72
2023-02-09T03:41:03.330Z,1026.63
2023-02-09T03:42:03.346Z,1026.64
2023-02-09T03:43:03.300Z,1026.61
2023-02-09T03:44:03.359Z,1026.67
2023-02-09T03:45:03.307Z,1026.59
2023-02-09T03:46:03.356Z,1026.60
2023-02-09T03:47:03.273Z,1026.59
2023-02-09T03:48:04.292Z,1026.53
2023-02-09T03:49:03.240Z,1026.52
2023-02-09T03:50:03.337Z,1026.50
2023-02-09T03:51:03.216Z,1026.48
2023-02-09T03:52:03.300Z,1026.48
2023-02-09T03:53:03.211Z,1026.44
2023-02-09T03:54:03.220Z,1026.45
2023-02-09T03:55:03.232Z,1026.42
2023-02-09T03:57:12.811Z,1026.38
2023-02-09T03:58:12.690Z,1026.48
2023-02-09T03:59:12.793Z,1026.49
2023-02-09T04:00:12.702Z,1026.47
2023-02-09T04:01:12.840Z,1026.46
2023-02-09T04:02:12.762Z,1026.42
2023-02-09T04:03:12.687Z,1026.38
2023-02-09T04:04:12.628Z,1026.35
2023-02-09T04:05:12.755Z,1026.35
2023-02-09T04:06:12.609Z,1026.32
2023-02-09T04:07:12.717Z,1026.30
2023-02-09T04:08:12.588Z,1026.26
2023-02-09T04:10:22.210Z,1026.24
2023-02-09T04:11:23.492Z,1026.26
2023-02-09T04:12:22.209Z,1026.30
2023-02-09T04:13:22.080Z,1026.26
2023-02-09T04:14:22.253Z,1026.28
2023-02-09T04:15:22.081Z,1026.27
2023-02-09T04:16:22.188Z,1026.26
2023-02-09T04:17:22.045Z,1026.24
2023-02-09T04:18:23.136Z,1026.17
2023-02-09T04:19:22.028Z,1026.23
2023-02-09T04:20:23.094Z,1026.18
2023-02-09T04:21:22.001Z,1026.19
2023-02-09T04:22:24.079Z,1026.19
2023-02-09T04:23:21.977Z,1026.20
2023-02-09T04:24:23.999Z,1026.20
2023-02-09T04:25:21.959Z,1026.24
2023-02-09T04:26:22.016Z,1026.22
2023-02-09T04:27:21.956Z,1026.26
2023-02-09T04:28:22.037Z,1026.25
2023-02-09T04:29:21.904Z,1026.25
2023-02-09T04:30:22.008Z,1026.14
2023-02-09T04:31:21.994Z,1026.14
2023-02-09T04:32:21.902Z,1026.10
2023-02-09T04:33:21.884Z,1026.10
2023-02-09T04:34:21.911Z,1026.08
2023-02-09T04:35:21.855Z,1026.04
2023-02-09T04:36:21.877Z,1026.07
2023-02-09T04:37:21.849Z,1026.06
2023-02-09T04:38:21.844Z,1026.01
2023-02-09T04:39:21.820Z,1026.07
2023-02-09T04:40:21.854Z,1026.00
2023-02-09T04:41:21.815Z,1025.94
2023-02-09T04:42:21.865Z,1025.93
2023-02-09T04:43:21.785Z,1025.92
2023-02-09T04:44:21.803Z,1025.99
2023-02-09T04:45:21.750Z,1025.98
2023-02-09T04:46:21.872Z,1026.00
2023-02-09T04:47:21.731Z,1025.98
2023-02-09T04:48:21.804Z,1025.99
2023-02-09T04:49:21.709Z,1026.02
2023-02-09T04:50:21.716Z,1026.06
2023-02-09T04:51:21.705Z,1026.09
2023-02-09T04:52:21.729Z,1026.11
2023-02-09T04:53:21.668Z,1026.13
2023-02-09T04:54:21.759Z,1026.05
2023-02-09T04:55:21.647Z,1026.05
2023-02-09T04:56:21.716Z,1026.06
2023-02-09T04:57:21.625Z,1026.03
2023-02-09T04:58:21.668Z,1026.06
2023-02-09T04:59:21.606Z,1026.06
2023-02-09T05:00:21.687Z,1026.06
2023-02-09T05:01:21.656Z,1026.05
2023-02-09T05:02:21.620Z,1026.09
2023-02-09T05:03:23.050Z,1026.20
2023-02-09T05:04:22.640Z,1026.18
2023-02-09T05:05:21.541Z,1026.16
2023-02-09T05:06:21.575Z,1026.20
2023-02-09T05:07:21.518Z,1026.25
2023-02-09T05:08:21.556Z,1026.18
2023-02-09T05:09:21.495Z,1026.17
2023-02-09T05:10:21.551Z,1026.19
2023-02-09T05:11:21.492Z,1026.10
2023-02-09T05:12:22.488Z,1026.00
2023-02-09T05:13:21.453Z,1025.95
2023-02-09T05:14:21.478Z,1025.97
2023-02-09T05:15:21.445Z,1025.93
2023-02-09T05:16:21.638Z,1025.95
2023-02-09T05:17:21.412Z,1025.96
2023-02-09T05:18:21.523Z,1025.93
2023-02-09T05:19:21.392Z,1025.94
2023-02-09T05:20:21.416Z,1025.95
2023-02-09T05:21:21.394Z,1025.89
2023-02-09T05:22:21.457Z,1025.95
2023-02-09T05:23:21.402Z,1025.85
2023-02-09T05:24:22.468Z,1025.88
2023-02-09T05:25:21.328Z,1025.82
2023-02-09T05:26:21.414Z,1025.83
2023-02-09T05:27:21.316Z,1025.83
2023-02-09T05:28:21.453Z,1025.86
2023-02-09T05:29:22.286Z,1025.74
2023-02-09T05:30:21.386Z,1025.75
2023-02-09T05:31:21.416Z,1025.79
2023-02-09T05:32:21.367Z,1025.76
2023-02-09T05:33:21.244Z,1025.73
2023-02-09T05:34:21.335Z,1025.78
2023-02-09T05:35:21.224Z,1025.78
2023-02-09T05:36:21.277Z,1025.78
2023-02-09T05:37:21.201Z,1025.80
2023-02-09T05:38:21.254Z,1025.91
2023-02-09T05:39:21.184Z,1025.85
2023-02-09T05:40:21.254Z,1025.85
2023-02-09T05:41:21.196Z,1025.86
2023-02-09T05:42:21.263Z,1025.81
2023-02-09T05:43:21.139Z,1025.91
2023-02-09T05:44:21.179Z,1025.85
2023-02-09T05:45:21.116Z,1025.80
2023-02-09T05:46:21.284Z,1025.84
2023-02-09T05:47:21.104Z,1025.81
2023-02-09T05:48:21.202Z,1025.79
2023-02-09T05:49:21.074Z,1025.79
2023-02-09T05:50:21.137Z,1025.83
2023-02-09T05:51:21.073Z,1025.95
2023-02-09T05:52:21.149Z,1025.92
2023-02-09T05:53:21.036Z,1025.97
2023-02-09T05:54:23.102Z,1026.00
2023-02-09T05:55:21.013Z,1026.06
2023-02-09T05:56:21.108Z,1026.06
2023-02-09T05:57:20.989Z,1026.06
2023-02-09T05:58:22.094Z,1026.04
2023-02-09T05:59:20.987Z,1026.10
2023-02-09T06:00:21.007Z,1026.16
2023-02-09T06:01:20.972Z,1026.15
2023-02-09T06:02:21.101Z,1026.13
2023-02-09T06:03:20.963Z,1026.25
2023-02-09T06:04:22.965Z,1026.23
2023-02-09T06:05:20.961Z,1026.23
2023-02-09T06:06:20.983Z,1026.26
2023-02-09T06:07:20.920Z,1026.25
2023-02-09T06:08:20.928Z,1026.32
2023-02-09T06:09:20.863Z,1026.26
2023-02-09T06:10:20.947Z,1026.21
2023-02-09T06:11:20.876Z,1026.20
2023-02-09T06:12:20.860Z,1026.22
2023-02-09T06:13:20.820Z,1026.30
2023-02-09T06:14:20.868Z,1026.27
2023-02-09T06:15:20.833Z,1026.32
2023-02-09T06:16:20.835Z,1026.37
2023-02-09T06:17:20.777Z,1026.28
2023-02-09T06:18:20.797Z,1026.29
2023-02-09T06:19:20.756Z,1026.27
2023-02-09T06:20:20.808Z,1026.28
2023-02-09T06:21:20.750Z,1026.32
2023-02-09T06:22:20.851Z,1026.36
2023-02-09T06:23:20.717Z,1026.39
2023-02-09T06:24:20.926Z,1026.46
2023-02-09T06:25:20.690Z,1026.45
2023-02-09T06:26:20.798Z,1026.48
2023-02-09T06:27:20.672Z,1026.46
2023-02-09T06:28:20.865Z,1026.53
2023-02-09T06:29:20.657Z,1026.51
2023-02-09T06:30:20.674Z,1026.49
2023-02-09T06:31:20.761Z,1026.49
2023-02-09T06:32:20.694Z,1026.47
2023-02-09T06:33:20.609Z,1026.48
2023-02-09T06:34:20.702Z,1026.47
2023-02-09T06:35:20.607Z,1026.43
2023-02-09T06:36:20.669Z,1026.48
2023-02-09T06:37:20.574Z,1026.45
2023-02-09T06:38:20.649Z,1026.42
2023-02-09T06:39:20.549Z,1026.49
2023-02-09T06:40:20.646Z,1026.49
2023-02-09T06:41:20.546Z,1026.50
2023-02-09T06:42:21.578Z,1026.57
2023-02-09T06:43:20.514Z,1026.50
2023-02-09T06:44:22.514Z,1026.48
2023-02-09T06:45:20.515Z,1026.46
2023-02-09T06:46:20.584Z,1026.45
2023-02-09T06:47:20.469Z,1026.34
2023-02-09T06:48:20.558Z,1026.35
2023-02-09T06:49:20.439Z,1026.35
2023-02-09T06:50:41.498Z,1026.42
2023-02-09T06:51:20.450Z,1026.37
2023-02-09T06:52:41.512Z,1026.35
2023-02-09T06:53:20.410Z,1026.33
2023-02-09T06:54:20.448Z,1026.37
2023-02-09T06:55:20.379Z,1026.39
2023-02-09T06:56:20.407Z,1026.38
2023-02-09T06:57:20.380Z,1026.40
2023-02-09T06:58:20.372Z,1026.37
2023-02-09T06:59:20.339Z,1026.43
2023-02-09T07:00:20.400Z,1026.40
2023-02-09T07:01:20.576Z,1026.46
2023-02-09T07:02:20.498Z,1026.43
2023-02-09T07:03:20.301Z,1026.42
2023-02-09T07:04:20.397Z,1026.44
2023-02-09T07:05:20.274Z,1026.40
2023-02-09T07:06:20.362Z,1026.41
2023-02-09T07:07:20.255Z,1026.33
2023-02-09T07:08:20.335Z,1026.32
2023-02-09T07:09:20.235Z,1026.32
2023-02-09T07:10:20.352Z,1026.27
2023-02-09T07:11:20.237Z,1026.28
2023-02-09T07:12:20.251Z,1026.30
2023-02-09T07:13:20.183Z,1026.29
2023-02-09T07:14:20.267Z,1026.38
2023-02-09T07:15:20.172Z,1026.33
2023-02-09T07:16:20.473Z,1026.32
2023-02-09T07:17:20.158Z,1026.31
2023-02-09T07:18:20.189Z,1026.34
2023-02-09T07:19:20.127Z,1026.30
2023-02-09T07:20:20.200Z,1026.38
2023-02-09T07:21:20.189Z,1026.31
2023-02-09T07:22:20.141Z,1026.38
2023-02-09T07:23:20.098Z,1026.29
2023-02-09T07:24:20.142Z,1026.41
2023-02-09T07:25:20.063Z,1026.42
2023-02-09T07:26:20.110Z,1026.31
2023-02-09T07:27:20.067Z,1026.34
2023-02-09T07:28:20.118Z,1026.38
2023-02-09T07:29:20.046Z,1026.35
2023-02-09T07:30:22.115Z,1026.36
2023-02-09T07:31:20.081Z,1026.26
2023-02-09T07:32:20.083Z,1026.29
2023-02-09T07:33:20.005Z,1026.27
2023-02-09T07:34:19.993Z,1026.30
2023-02-09T07:35:19.968Z,1026.30
2023-02-09T07:36:20.065Z,1026.35
2023-02-09T07:37:19.936Z,1026.40
2023-02-09T07:38:20.940Z,1026.40
2023-02-09T07:39:19.913Z,1026.43
2023-02-09T07:40:20.510Z,1026.42
2023-02-09T07:41:19.894Z,1026.45
2023-02-09T07:42:21.137Z,1026.41
2023-02-09T07:43:19.870Z,1026.44
2023-02-09T07:44:19.972Z,1026.38
2023-02-09T07:45:19.852Z,1026.43
2023-02-09T07:46:19.909Z,1026.44
2023-02-09T07:47:19.845Z,1026.41
2023-02-09T07:48:19.878Z,1026.40
2023-02-09T07:49:19.806Z,1026.42
2023-02-09T07:50:20.205Z,1026.49
2023-02-09T07:51:19.839Z,1026.51
2023-02-09T07:52:19.870Z,1026.54
2023-02-09T07:53:19.767Z,1026.52
2023-02-09T07:54:19.833Z,1026.59
2023-02-09T07:55:19.763Z,1026.55
2023-02-09T07:56:19.734Z,1026.57
2023-02-09T07:57:19.785Z,1026.51
2023-02-09T07:58:19.728Z,1026.61
2023-02-09T07:59:19.753Z,1026.61
2023-02-09T08:00:19.706Z,1026.66
2023-02-09T08:01:19.901Z,1026.64
2023-02-09T08:02:19.688Z,1026.69
2023-02-09T08:03:19.689Z,1026.63
2023-02-09T08:04:19.647Z,1026.66
2023-02-09T08:05:19.744Z,1026.69
2023-02-09T08:06:20.921Z,1026.63
2023-02-09T08:07:19.781Z,1026.62
2023-02-09T08:08:19.607Z,1026.61
2023-02-09T08:09:19.591Z,1026.65
2023-02-09T08:10:19.646Z,1026.70
2023-02-09T08:11:19.574Z,1026.70
2023-02-09T08:12:19.748Z,1026.67
2023-02-09T08:13:19.563Z,1026.70
2023-02-09T08:14:19.677Z,1026.63
2023-02-09T08:15:19.526Z,1026.60
2023-02-09T08:16:21.687Z,1026.60
2023-02-09T08:17:19.523Z,1026.59
2023-02-09T08:18:19.573Z,1026.61
2023-02-09T08:19:19.492Z,1026.59
2023-02-09T08:20:20.517Z,1026.58
2023-02-09T08:21:19.467Z,1026.67
2023-02-09T08:22:19.554Z,1026.65
2023-02-09T08:23:19.449Z,1026.65
2023-02-09T08:24:21.461Z,1026.69
2023-02-09T08:25:19.429Z,1026.74
2023-02-09T08:26:19.528Z,1026.72
2023-02-09T08:27:19.420Z,1026.73
2023-02-09T08:28:19.502Z,1026.70
2023-02-09T08:29:19.386Z,1026.75
2023-02-09T08:30:19.468Z,1026.67
2023-02-09T08:31:19.465Z,1026.75
2023-02-09T08:32:19.429Z,1026.72
2023-02-09T08:33:19.336Z,1026.65
2023-02-09T08:34:19.376Z,1026.62
2023-02-09T08:35:19.317Z,1026.52
2023-02-09T08:36:19.393Z,1026.52
2023-02-09T08:37:19.319Z,1026.53
2023-02-09T08:38:19.306Z,1026.61
2023-02-09T08:39:19.273Z,1026.60
2023-02-09T08:40:19.342Z,1026.63
2023-02-09T08:41:19.255Z,1026.67
2023-02-09T08:42:19.287Z,1026.63
2023-02-09T08:43:19.236Z,1026.68
2023-02-09T08:44:19.259Z,1026.74
2023-02-09T08:45:19.209Z,1026.71
2023-02-09T08:46:19.482Z,1026.70
2023-02-09T08:47:19.242Z,1026.70
2023-02-09T08:48:19.272Z,1026.69
2023-02-09T08:49:19.165Z,1026.66
2023-02-09T08:50:19.193Z,1026.67
2023-02-09T08:51:19.150Z,1026.67
2023-02-09T08:52:19.267Z,1026.67
2023-02-09T08:53:19.125Z,1026.65
2023-02-09T08:54:19.213Z,1026.67
2023-02-09T08:55:19.099Z,1026.58
2023-02-09T08:56:19.128Z,1026.58
2023-02-09T08:57:19.101Z,1026.52
2023-02-09T08:58:19.140Z,1026.51
2023-02-09T08:59:20.135Z,1026.46
2023-02-09T09:00:19.182Z,1026.53
2023-02-09T09:01:19.115Z,1026.54
2023-02-09T09:02:19.277Z,1026.57
2023-02-09T09:03:19.041Z,1026.52
2023-02-09T09:04:20.104Z,1026.43
2023-02-09T09:05:19.001Z,1026.47
2023-02-09T09:06:19.091Z,1026.45
2023-02-09T09:07:18.989Z,1026.41
2023-02-09T09:08:19.029Z,1026.45
2023-02-09T09:09:18.948Z,1026.50
2023-02-09T09:10:20.963Z,1026.51
2023-02-09T09:11:18.937Z,1026.50
2023-02-09T09:12:18.980Z,1026.43
2023-02-09T09:13:18.907Z,1026.48
2023-02-09T09:14:18.954Z,1026.35
2023-02-09T09:15:18.900Z,1026.41
2023-02-09T09:16:19.011Z,1026.42
2023-02-09T09:17:18.882Z,1026.51
2023-02-09T09:18:18.897Z,1026.59
2023-02-09T09:19:18.847Z,1026.53
2023-02-09T09:20:18.906Z,1026.40
2023-02-09T09:21:18.828Z,1026.39
2023-02-09T09:22:18.857Z,1026.37
2023-02-09T09:23:18.807Z,1026.39
2023-02-09T09:24:18.809Z,1026.38
2023-02-09T09:25:18.781Z,1026.34
2023-02-09T09:26:18.812Z,1026.31
2023-02-09T09:27:18.780Z,1026.23
2023-02-09T09:28:18.893Z,1026.10
2023-02-09T09:29:18.747Z,1026.00
2023-02-09T09:30:18.764Z,1026.02
2023-02-09T09:31:18.802Z,1026.09
2023-02-09T09:32:18.956Z,1026.11
2023-02-09T09:33:18.717Z,1026.10
2023-02-09T09:34:18.793Z,1026.07
2023-02-09T09:35:18.674Z,1025.98
2023-02-09T09:36:18.688Z,1026.03
2023-02-09T09:37:18.671Z,1025.96
2023-02-09T09:38:18.700Z,1025.99
2023-02-09T09:39:18.636Z,1025.99
2023-02-09T09:40:18.719Z,1026.03
2023-02-09T09:41:18.615Z,1026.06
2023-02-09T09:42:18.679Z,1026.05
2023-02-09T09:43:18.583Z,1026.03
2023-02-09T09:44:18.644Z,1026.10
2023-02-09T09:45:18.564Z,1026.16
2023-02-09T09:46:18.727Z,1026.16
2023-02-09T09:47:18.562Z,1026.09
2023-02-09T09:48:18.571Z,1026.12
2023-02-09T09:49:18.522Z,1026.15
2023-02-09T09:50:18.598Z,1026.22
2023-02-09T09:51:18.503Z,1026.17
2023-02-09T09:52:18.546Z,1026.10
2023-02-09T09:53:18.471Z,1026.13
2023-02-09T09:54:18.507Z,1026.17
2023-02-09T09:55:18.455Z,1026.15
2023-02-09T09:56:20.479Z,1026.17
2023-02-09T09:57:18.444Z,1026.16
2023-02-09T09:58:19.140Z,1026.15
2023-02-09T09:59:18.410Z,1026.16
2023-02-09T10:00:18.445Z,1026.15
2023-02-09T10:01:18.609Z,1026.01
2023-02-09T10:02:18.413Z,1026.10
2023-02-09T10:03:18.366Z,1026.14
2023-02-09T10:04:18.386Z,1026.21
2023-02-09T10:05:18.347Z,1026.38
2023-02-09T10:06:18.395Z,1026.34
2023-02-09T10:07:19.656Z,1026.29
2023-02-09T10:08:18.358Z,1026.27
2023-02-09T10:09:18.298Z,1026.22
2023-02-09T10:10:18.305Z,1026.20
2023-02-09T10:11:18.265Z,1026.16
2023-02-09T10:12:18.318Z,1026.21
2023-02-09T10:13:18.268Z,1026.36
2023-02-09T10:14:18.333Z,1026.33
2023-02-09T10:15:18.229Z,1026.44
2023-02-09T10:16:18.324Z,1026.38
2023-02-09T10:17:18.201Z,1026.37
2023-02-09T10:18:18.327Z,1026.31
2023-02-09T10:19:18.185Z,1026.26
2023-02-09T10:20:18.292Z,1026.20
2023-02-09T10:21:18.162Z,1026.25
2023-02-09T10:22:18.202Z,1026.26
2023-02-09T10:23:18.155Z,1026.27
2023-02-09T10:24:18.201Z,1026.28
2023-02-09T10:25:18.128Z,1026.23
2023-02-09T10:26:18.216Z,1026.19
2023-02-09T10:27:18.097Z,1026.26
2023-02-09T10:28:18.291Z,1026.37
2023-02-09T10:29:18.072Z,1026.36
2023-02-09T10:30:18.146Z,1026.34
2023-02-09T10:31:18.169Z,1026.24
2023-02-09T10:32:18.148Z,1026.27
2023-02-09T10:33:18.046Z,1026.33
2023-02-09T10:34:19.083Z,1026.36
2023-02-09T10:35:18.003Z,1026.31
2023-02-09T10:36:19.098Z,1026.31
2023-02-09T10:37:18.000Z,1026.27
2023-02-09T10:38:18.068Z,1026.26
2023-02-09T10:39:17.985Z,1026.24
2023-02-09T10:40:38.990Z,1026.23
2023-02-09T10:41:17.944Z,1026.30
2023-02-09T10:42:17.928Z,1026.27
2023-02-09T10:43:17.964Z,1026.39
2023-02-09T10:44:17.912Z,1026.21
2023-02-09T10:45:17.931Z,1026.22
2023-02-09T10:46:17.910Z,1026.21
2023-02-09T10:47:17.945Z,1026.28
2023-02-09T10:48:17.874Z,1026.23
2023-02-09T10:49:17.845Z,1026.32
2023-02-09T10:50:17.836Z,1026.23
2023-02-09T10:51:17.875Z,1026.11
2023-02-09T10:52:18.644Z,1026.14
2023-02-09T10:53:17.932Z,1026.09
2023-02-09T10:54:17.807Z,1026.07
2023-02-09T10:55:17.899Z,1026.02
2023-02-09T10:56:17.770Z,1026.01
2023-02-09T10:57:17.808Z,1026.13
2023-02-09T10:58:17.765Z,1026.07
2023-02-09T10:59:17.829Z,1026.06
2023-02-09T11:00:17.768Z,1026.12
2023-02-09T11:01:17.801Z,1026.19
2023-02-09T11:02:17.824Z,1026.12
2023-02-09T11:03:17.805Z,1026.12
2023-02-09T11:04:17.771Z,1026.07
2023-02-09T11:05:38.761Z,1026.08
2023-02-09T11:06:17.676Z,1026.06
2023-02-09T11:07:17.660Z,1026.09
2023-02-09T11:08:17.747Z,1026.05
2023-02-09T11:09:17.645Z,1026.09
2023-02-09T11:10:17.763Z,1026.11
2023-02-09T11:11:17.632Z,1026.09
2023-02-09T11:12:17.617Z,1026.10
2023-02-09T11:13:18.076Z,1026.12
2023-02-09T11:14:17.626Z,1026.15
2023-02-09T11:15:17.571Z,1026.10
2023-02-09T11:16:17.724Z,1026.15
2023-02-09T11:17:17.604Z,1026.21
2023-02-09T11:18:17.607Z,1026.21
2023-02-09T11:19:17.545Z,1026.23
2023-02-09T11:20:18.621Z,1026.22
2023-02-09T11:21:18.149Z,1026.17
2023-02-09T11:22:17.583Z,1026.14
2023-02-09T11:23:17.499Z,1026.18
2023-02-09T11:24:17.494Z,1026.19
2023-02-09T11:25:17.457Z,1026.24
2023-02-09T11:26:18.640Z,1026.23
2023-02-09T11:27:17.436Z,1026.19
2023-02-09T11:28:17.538Z,1026.21
2023-02-09T11:29:17.411Z,1026.17
2023-02-09T11:30:17.512Z,1026.15
2023-02-09T11:31:17.519Z,1026.23
2023-02-09T11:32:17.448Z,1026.15
2023-02-09T11:33:17.393Z,1026.07
2023-02-09T11:34:18.602Z,1026.11
2023-02-09T11:35:17.362Z,1026.09
2023-02-09T11:36:17.338Z,1026.02
2023-02-09T11:37:17.381Z,1026.08
2023-02-09T11:38:17.332Z,1026.02
2023-02-09T11:39:17.408Z,1026.03
2023-02-09T11:40:17.313Z,1026.03
2023-02-09T11:41:17.300Z,1026.05
2023-02-09T11:42:17.297Z,1026.09
2023-02-09T11:43:17.514Z,1026.10
2023-02-09T11:44:17.402Z,1026.07
2023-02-09T11:45:17.336Z,1025.99
2023-02-09T11:46:17.258Z,1025.94
2023-02-09T11:47:17.242Z,1025.96
2023-02-09T11:48:17.228Z,1026.00
2023-02-09T11:49:17.257Z,1026.06
2023-02-09T11:50:17.184Z,1026.02
2023-02-09T11:51:17.272Z,1026.06
2023-02-09T11:52:17.158Z,1026.02
2023-02-09T11:53:17.178Z,1025.95
2023-02-09T11:54:17.156Z,1026.00
2023-02-09T11:55:17.194Z,1026.00
2023-02-09T11:56:17.118Z,1025.97
2023-02-09T11:57:17.208Z,1025.98
2023-02-09T11:58:17.112Z,1026.00
2023-02-09T11:59:17.179Z,1025.97
2023-02-09T12:00:17.069Z,1026.03
2023-02-09T12:01:17.710Z,1026.03
2023-02-09T12:02:17.053Z,1026.07
2023-02-09T12:03:17.313Z,1026.11
2023-02-09T12:04:17.044Z,1026.13
2023-02-09T12:05:18.087Z,1026.19
2023-02-09T12:06:17.068Z,1026.21
2023-02-09T12:07:18.107Z,1026.12